sensor_id;sensor_type;location;lat;lon;timestamp;temperature;humidity
49184;DHT22;35021;49.214;12.270;2023-03-23T00:01:06;19.00;41.10
49184;DHT22;35021;49.214;12.270;2023-03-23T00:03:32;19.00;41.10
49184;DHT22;35021;49.214;12.270;2023-03-23T00:05:59;19.00;41.00
49184;DHT22;35021;49.214;12.270;2023-03-23T00:08:37;19.00;41.10
49184;DHT22;35021;49.214;12.270;2023-03-23T00:11:06;19.00;41.00
49184;DHT22;35021;49.214;12.270;2023-03-23T00:13:33;19.00;41.00
49184;DHT22;35021;49.214;12.270;2023-03-23T00:15:59;19.00;41.00
49184;DHT22;35021;49.214;12.270;2023-03-23T00:18:25;19.00;41.00
49184;DHT22;35021;49.214;12.270;2023-03-23T00:20:55;19.00;41.00
49184;DHT22;35021;49.214;12.270;2023-03-23T00:23:25;19.00;41.00
49184;DHT22;35021;49.214;12.270;2023-03-23T00:25:53;19.00;41.00
49184;DHT22;35021;49.214;12.270;2023-03-23T00:28:23;19.00;41.00
49184;DHT22;35021;49.214;12.270;2023-03-23T00:31:02;19.00;41.00
49184;DHT22;35021;49.214;12.270;2023-03-23T00:33:33;19.00;41.20
49184;DHT22;35021;49.214;12.270;2023-03-23T00:36:04;19.00;40.90
49184;DHT22;35021;49.214;12.270;2023-03-23T00:38:31;19.00;40.90
49184;DHT22;35021;49.214;12.270;2023-03-23T00:40:57;19.00;41.00
49184;DHT22;35021;49.214;12.270;2023-03-23T00:43:23;19.00;41.10
49184;DHT22;35021;49.214;12.270;2023-03-23T00:45:55;19.00;41.20
49184;DHT22;35021;49.214;12.270;2023-03-23T00:48:23;18.90;41.10
49184;DHT22;35021;49.214;12.270;2023-03-23T00:50:49;18.90;41.20
49184;DHT22;35021;49.214;12.270;2023-03-23T00:53:16;18.90;41.30
49184;DHT22;35021;49.214;12.270;2023-03-23T00:55:43;18.90;41.30
49184;DHT22;35021;49.214;12.270;2023-03-23T00:58:10;18.90;41.30
49184;DHT22;35021;49.214;12.270;2023-03-23T01:00:36;18.90;41.30
49184;DHT22;35021;49.214;12.270;2023-03-23T01:03:03;18.80;41.30
49184;DHT22;35021;49.214;12.270;2023-03-23T01:05:29;18.90;41.40
49184;DHT22;35021;49.214;12.270;2023-03-23T01:07:58;18.80;41.40
49184;DHT22;35021;49.214;12.270;2023-03-23T01:10:24;18.90;41.40
49184;DHT22;35021;49.214;12.270;2023-03-23T01:12:52;18.80;41.30
49184;DHT22;35021;49.214;12.270;2023-03-23T01:15:19;18.80;41.30
49184;DHT22;35021;49.214;12.270;2023-03-23T01:17:45;18.90;41.40
49184;DHT22;35021;49.214;12.270;2023-03-23T01:20:13;18.80;41.30
49184;DHT22;35021;49.214;12.270;2023-03-23T01:22:41;18.90;41.40
49184;DHT22;35021;49.214;12.270;2023-03-23T01:25:09;18.90;41.30
49184;DHT22;35021;49.214;12.270;2023-03-23T01:27:36;18.80;41.30
49184;DHT22;35021;49.214;12.270;2023-03-23T01:30:03;18.90;41.40
49184;DHT22;35021;49.214;12.270;2023-03-23T01:32:30;18.90;41.40
49184;DHT22;35021;49.214;12.270;2023-03-23T01:34:56;18.90;41.40
49184;DHT22;35021;49.214;12.270;2023-03-23T01:37:22;18.90;41.40
49184;DHT22;35021;49.214;12.270;2023-03-23T01:39:55;18.90;41.30
49184;DHT22;35021;49.214;12.270;2023-03-23T01:42:29;18.90;41.40
49184;DHT22;35021;49.214;12.270;2023-03-23T01:45:28;18.90;41.30
49184;DHT22;35021;49.214;12.270;2023-03-23T01:50:28;18.90;41.30
49184;DHT22;35021;49.214;12.270;2023-03-23T01:52:56;18.90;41.30
49184;DHT22;35021;49.214;12.270;2023-03-23T01:55:25;18.90;41.30
49184;DHT22;35021;49.214;12.270;2023-03-23T01:57:53;18.90;41.30
49184;DHT22;35021;49.214;12.270;2023-03-23T02:00:19;18.90;41.40
49184;DHT22;35021;49.214;12.270;2023-03-23T02:02:48;18.90;41.30
49184;DHT22;35021;49.214;12.270;2023-03-23T02:05:38;18.90;41.40
49184;DHT22;35021;49.214;12.270;2023-03-23T02:08:06;18.90;41.40
49184;DHT22;35021;49.214;12.270;2023-03-23T02:10:36;19.00;41.50
49184;DHT22;35021;49.214;12.270;2023-03-23T02:13:05;18.90;41.40
49184;DHT22;35021;49.214;12.270;2023-03-23T02:15:45;19.00;41.50
49184;DHT22;35021;49.214;12.270;2023-03-23T02:21:26;19.00;41.50
49184;DHT22;35021;49.214;12.270;2023-03-23T02:27:14;19.00;41.50
49184;DHT22;35021;49.214;12.270;2023-03-23T02:35:36;18.90;41.50
49184;DHT22;35021;49.214;12.270;2023-03-23T02:38:08;18.90;41.50
49184;DHT22;35021;49.214;12.270;2023-03-23T02:40:56;18.90;41.50
49184;DHT22;35021;49.214;12.270;2023-03-23T02:43:23;18.90;41.50
49184;DHT22;35021;49.214;12.270;2023-03-23T02:45:52;18.90;41.60
49184;DHT22;35021;49.214;12.270;2023-03-23T02:48:20;18.90;41.50
49184;DHT22;35021;49.214;12.270;2023-03-23T02:50:51;18.90;41.50
49184;DHT22;35021;49.214;12.270;2023-03-23T02:53:20;18.90;41.50
49184;DHT22;35021;49.214;12.270;2023-03-23T02:55:47;18.90;41.50
49184;DHT22;35021;49.214;12.270;2023-03-23T02:58:14;18.90;41.40
49184;DHT22;35021;49.214;12.270;2023-03-23T03:00:40;18.90;42.20
49184;DHT22;35021;49.214;12.270;2023-03-23T03:03:12;18.90;41.60
49184;DHT22;35021;49.214;12.270;2023-03-23T03:05:44;18.90;41.60
49184;DHT22;35021;49.214;12.270;2023-03-23T03:08:15;18.90;41.70
49184;DHT22;35021;49.214;12.270;2023-03-23T03:11:05;18.90;41.70
49184;DHT22;35021;49.214;12.270;2023-03-23T03:13:50;19.00;41.70
49184;DHT22;35021;49.214;12.270;2023-03-23T03:21:52;19.20;41.40
49184;DHT22;35021;49.214;12.270;2023-03-23T03:24:20;19.30;41.30
49184;DHT22;35021;49.214;12.270;2023-03-23T03:26:50;19.40;41.20
49184;DHT22;35021;49.214;12.270;2023-03-23T03:29:22;19.50;41.10
49184;DHT22;35021;49.214;12.270;2023-03-23T03:31:51;19.50;40.90
49184;DHT22;35021;49.214;12.270;2023-03-23T03:34:21;19.60;40.80
49184;DHT22;35021;49.214;12.270;2023-03-23T03:36:48;19.70;40.70
49184;DHT22;35021;49.214;12.270;2023-03-23T03:39:16;19.80;40.60
49184;DHT22;35021;49.214;12.270;2023-03-23T03:41:43;19.80;40.50
49184;DHT22;35021;49.214;12.270;2023-03-23T03:44:10;19.90;40.50
49184;DHT22;35021;49.214;12.270;2023-03-23T03:46:36;19.90;40.40
49184;DHT22;35021;49.214;12.270;2023-03-23T03:49:05;19.90;40.30
49184;DHT22;35021;49.214;12.270;2023-03-23T03:51:32;19.80;40.30
49184;DHT22;35021;49.214;12.270;2023-03-23T03:53:58;19.80;40.40
49184;DHT22;35021;49.214;12.270;2023-03-23T03:56:24;19.80;40.50
49184;DHT22;35021;49.214;12.270;2023-03-23T03:58:51;19.80;40.60
49184;DHT22;35021;49.214;12.270;2023-03-23T04:01:20;19.80;40.60
49184;DHT22;35021;49.214;12.270;2023-03-23T04:03:48;19.80;40.60
49184;DHT22;35021;49.214;12.270;2023-03-23T04:06:15;19.80;40.70
49184;DHT22;35021;49.214;12.270;2023-03-23T04:08:41;19.90;40.70
49184;DHT22;35021;49.214;12.270;2023-03-23T04:11:09;19.90;40.60
49184;DHT22;35021;49.214;12.270;2023-03-23T04:13:36;20.00;40.40
49184;DHT22;35021;49.214;12.270;2023-03-23T04:16:02;20.00;40.20
49184;DHT22;35021;49.214;12.270;2023-03-23T04:18:29;20.10;40.10
49184;DHT22;35021;49.214;12.270;2023-03-23T04:20:59;20.10;39.90
49184;DHT22;35021;49.214;12.270;2023-03-23T04:23:26;20.10;39.80
49184;DHT22;35021;49.214;12.270;2023-03-23T04:25:53;20.20;39.70
49184;DHT22;35021;49.214;12.270;2023-03-23T04:28:23;20.20;39.60
49184;DHT22;35021;49.214;12.270;2023-03-23T04:30:51;20.20;39.60
49184;DHT22;35021;49.214;12.270;2023-03-23T04:33:27;20.20;39.60
49184;DHT22;35021;49.214;12.270;2023-03-23T04:35:54;20.20;39.60
49184;DHT22;35021;49.214;12.270;2023-03-23T04:38:22;20.20;39.70
49184;DHT22;35021;49.214;12.270;2023-03-23T04:40:49;20.10;39.80
49184;DHT22;35021;49.214;12.270;2023-03-23T04:43:18;20.10;39.80
49184;DHT22;35021;49.214;12.270;2023-03-23T04:45:57;20.00;39.80
49184;DHT22;35021;49.214;12.270;2023-03-23T04:48:27;20.00;39.80
49184;DHT22;35021;49.214;12.270;2023-03-23T04:50:54;20.00;39.80
49184;DHT22;35021;49.214;12.270;2023-03-23T04:53:20;20.00;39.80
49184;DHT22;35021;49.214;12.270;2023-03-23T04:55:47;20.00;39.80
49184;DHT22;35021;49.214;12.270;2023-03-23T04:58:14;20.00;39.70
49184;DHT22;35021;49.214;12.270;2023-03-23T05:00:40;20.10;39.80
49184;DHT22;35021;49.214;12.270;2023-03-23T05:03:10;20.10;39.70
49184;DHT22;35021;49.214;12.270;2023-03-23T05:05:36;20.10;39.70
49184;DHT22;35021;49.214;12.270;2023-03-23T05:08:02;20.10;39.60
49184;DHT22;35021;49.214;12.270;2023-03-23T05:10:28;20.20;39.70
49184;DHT22;35021;49.214;12.270;2023-03-23T05:12:54;20.20;39.70
49184;DHT22;35021;49.214;12.270;2023-03-23T05:15:20;20.20;39.60
49184;DHT22;35021;49.214;12.270;2023-03-23T05:17:46;20.10;39.60
49184;DHT22;35021;49.214;12.270;2023-03-23T05:20:16;20.10;39.80
49184;DHT22;35021;49.214;12.270;2023-03-23T05:22:48;20.10;39.90
49184;DHT22;35021;49.214;12.270;2023-03-23T05:25:16;20.00;40.00
49184;DHT22;35021;49.214;12.270;2023-03-23T05:27:45;19.90;40.10
49184;DHT22;35021;49.214;12.270;2023-03-23T05:30:15;19.80;40.00
49184;DHT22;35021;49.214;12.270;2023-03-23T05:32:43;19.80;40.20
49184;DHT22;35021;49.214;12.270;2023-03-23T05:35:11;19.70;40.30
49184;DHT22;35021;49.214;12.270;2023-03-23T05:37:37;19.70;40.50
49184;DHT22;35021;49.214;12.270;2023-03-23T05:40:05;19.70;40.60
49184;DHT22;35021;49.214;12.270;2023-03-23T05:42:33;19.70;40.60
49184;DHT22;35021;49.214;12.270;2023-03-23T05:45:00;19.70;40.50
49184;DHT22;35021;49.214;12.270;2023-03-23T05:47:27;19.70;40.60
49184;DHT22;35021;49.214;12.270;2023-03-23T05:49:52;19.80;40.70
49184;DHT22;35021;49.214;12.270;2023-03-23T05:52:19;19.80;40.60
49184;DHT22;35021;49.214;12.270;2023-03-23T05:54:46;19.90;40.60
49184;DHT22;35021;49.214;12.270;2023-03-23T05:57:12;19.90;40.40
49184;DHT22;35021;49.214;12.270;2023-03-23T05:59:38;20.00;40.40
49184;DHT22;35021;49.214;12.270;2023-03-23T06:02:04;20.00;40.30
49184;DHT22;35021;49.214;12.270;2023-03-23T06:04:31;20.10;40.30
49184;DHT22;35021;49.214;12.270;2023-03-23T06:07:01;20.10;40.10
49184;DHT22;35021;49.214;12.270;2023-03-23T06:09:28;20.10;40.10
49184;DHT22;35021;49.214;12.270;2023-03-23T06:11:54;20.00;40.10
49184;DHT22;35021;49.214;12.270;2023-03-23T06:14:20;20.00;40.10
49184;DHT22;35021;49.214;12.270;2023-03-23T06:16:46;20.00;40.20
49184;DHT22;35021;49.214;12.270;2023-03-23T06:19:14;19.90;40.20
49184;DHT22;35021;49.214;12.270;2023-03-23T06:21:41;19.90;40.20
49184;DHT22;35021;49.214;12.270;2023-03-23T06:24:08;19.90;40.20
49184;DHT22;35021;49.214;12.270;2023-03-23T06:26:39;19.90;40.30
49184;DHT22;35021;49.214;12.270;2023-03-23T06:29:07;19.90;40.30
49184;DHT22;35021;49.214;12.270;2023-03-23T06:31:41;19.90;40.30
49184;DHT22;35021;49.214;12.270;2023-03-23T06:34:09;19.90;40.30
49184;DHT22;35021;49.214;12.270;2023-03-23T06:36:36;20.00;40.20
49184;DHT22;35021;49.214;12.270;2023-03-23T06:39:02;20.10;40.10
49184;DHT22;35021;49.214;12.270;2023-03-23T06:41:30;20.10;39.90
49184;DHT22;35021;49.214;12.270;2023-03-23T06:43:57;20.20;39.90
49184;DHT22;35021;49.214;12.270;2023-03-23T06:46:23;20.20;39.80
49184;DHT22;35021;49.214;12.270;2023-03-23T06:48:48;20.30;39.90
49184;DHT22;35021;49.214;12.270;2023-03-23T06:51:17;20.40;39.90
49184;DHT22;35021;49.214;12.270;2023-03-23T06:53:43;20.40;40.00
49184;DHT22;35021;49.214;12.270;2023-03-23T06:56:10;20.40;40.00
49184;DHT22;35021;49.214;12.270;2023-03-23T06:58:37;20.40;40.10
49184;DHT22;35021;49.214;12.270;2023-03-23T07:01:03;20.40;40.10
49184;DHT22;35021;49.214;12.270;2023-03-23T07:03:30;20.40;40.00
49184;DHT22;35021;49.214;12.270;2023-03-23T07:05:57;20.40;40.10
49184;DHT22;35021;49.214;12.270;2023-03-23T07:08:24;20.30;40.20
49184;DHT22;35021;49.214;12.270;2023-03-23T07:10:54;20.20;40.30
49184;DHT22;35021;49.214;12.270;2023-03-23T07:13:20;20.20;40.40
49184;DHT22;35021;49.214;12.270;2023-03-23T07:15:47;20.10;40.40
49184;DHT22;35021;49.214;12.270;2023-03-23T07:18:14;20.10;40.50
49184;DHT22;35021;49.214;12.270;2023-03-23T07:20:40;20.10;40.50
49184;DHT22;35021;49.214;12.270;2023-03-23T07:23:06;20.10;40.50
49184;DHT22;35021;49.214;12.270;2023-03-23T07:25:34;20.10;40.50
49184;DHT22;35021;49.214;12.270;2023-03-23T07:28:01;20.10;40.50
49184;DHT22;35021;49.214;12.270;2023-03-23T07:30:28;20.10;40.50
49184;DHT22;35021;49.214;12.270;2023-03-23T07:32:55;20.20;40.60
49184;DHT22;35021;49.214;12.270;2023-03-23T07:35:22;20.20;40.40
49184;DHT22;35021;49.214;12.270;2023-03-23T07:37:47;20.30;40.30
49184;DHT22;35021;49.214;12.270;2023-03-23T07:40:15;20.30;40.20
49184;DHT22;35021;49.214;12.270;2023-03-23T07:42:45;20.30;40.20
49184;DHT22;35021;49.214;12.270;2023-03-23T07:45:15;20.30;40.20
49184;DHT22;35021;49.214;12.270;2023-03-23T07:47:41;20.30;40.30
49184;DHT22;35021;49.214;12.270;2023-03-23T07:50:08;20.30;40.40
49184;DHT22;35021;49.214;12.270;2023-03-23T07:52:35;20.20;40.50
49184;DHT22;35021;49.214;12.270;2023-03-23T07:55:02;20.20;40.50
49184;DHT22;35021;49.214;12.270;2023-03-23T07:57:29;20.10;40.50
49184;DHT22;35021;49.214;12.270;2023-03-23T07:59:55;20.20;40.90
49184;DHT22;35021;49.214;12.270;2023-03-23T08:02:22;20.20;41.00
49184;DHT22;35021;49.214;12.270;2023-03-23T08:04:48;20.20;41.10
49184;DHT22;35021;49.214;12.270;2023-03-23T08:07:15;20.20;41.00
49184;DHT22;35021;49.214;12.270;2023-03-23T08:09:42;20.20;41.00
49184;DHT22;35021;49.214;12.270;2023-03-23T08:12:08;20.20;41.00
49184;DHT22;35021;49.214;12.270;2023-03-23T08:14:34;20.20;41.10
49184;DHT22;35021;49.214;12.270;2023-03-23T08:17:00;20.30;41.10
49184;DHT22;35021;49.214;12.270;2023-03-23T08:19:26;20.30;41.00
49184;DHT22;35021;49.214;12.270;2023-03-23T08:21:52;20.30;40.90
49184;DHT22;35021;49.214;12.270;2023-03-23T08:24:19;20.40;40.90
49184;DHT22;35021;49.214;12.270;2023-03-23T08:26:45;20.40;40.90
49184;DHT22;35021;49.214;12.270;2023-03-23T08:29:11;20.40;40.90
49184;DHT22;35021;49.214;12.270;2023-03-23T08:31:38;20.40;41.00
49184;DHT22;35021;49.214;12.270;2023-03-23T08:34:05;20.40;41.10
49184;DHT22;35021;49.214;12.270;2023-03-23T08:36:35;20.30;41.20
49184;DHT22;35021;49.214;12.270;2023-03-23T08:39:03;20.30;41.40
49184;DHT22;35021;49.214;12.270;2023-03-23T08:41:31;20.30;41.60
49184;DHT22;35021;49.214;12.270;2023-03-23T08:43:57;20.20;41.50
49184;DHT22;35021;49.214;12.270;2023-03-23T08:46:23;20.20;41.50
49184;DHT22;35021;49.214;12.270;2023-03-23T08:48:49;20.30;41.60
49184;DHT22;35021;49.214;12.270;2023-03-23T08:51:15;20.30;41.70
49184;DHT22;35021;49.214;12.270;2023-03-23T08:53:41;20.40;41.60
49184;DHT22;35021;49.214;12.270;2023-03-23T08:56:10;20.40;41.50
49184;DHT22;35021;49.214;12.270;2023-03-23T08:58:36;20.50;41.50
49184;DHT22;35021;49.214;12.270;2023-03-23T09:01:03;20.50;41.40
49184;DHT22;35021;49.214;12.270;2023-03-23T09:03:30;20.60;41.40
49184;DHT22;35021;49.214;12.270;2023-03-23T09:06:00;20.60;41.30
49184;DHT22;35021;49.214;12.270;2023-03-23T09:08:28;20.60;41.20
49184;DHT22;35021;49.214;12.270;2023-03-23T09:11:03;20.70;41.20
49184;DHT22;35021;49.214;12.270;2023-03-23T09:13:29;20.60;41.20
49184;DHT22;35021;49.214;12.270;2023-03-23T09:15:55;20.60;41.30
49184;DHT22;35021;49.214;12.270;2023-03-23T09:18:21;20.60;41.40
49184;DHT22;35021;49.214;12.270;2023-03-23T09:20:49;20.50;41.70
49184;DHT22;35021;49.214;12.270;2023-03-23T09:23:15;20.50;41.80
49184;DHT22;35021;49.214;12.270;2023-03-23T09:25:42;20.40;41.80
49184;DHT22;35021;49.214;12.270;2023-03-23T09:28:08;20.40;41.90
49184;DHT22;35021;49.214;12.270;2023-03-23T09:30:36;20.40;42.00
49184;DHT22;35021;49.214;12.270;2023-03-23T09:33:03;20.40;41.90
49184;DHT22;35021;49.214;12.270;2023-03-23T09:35:31;20.40;41.90
49184;DHT22;35021;49.214;12.270;2023-03-23T09:37:58;20.40;41.90
49184;DHT22;35021;49.214;12.270;2023-03-23T09:40:51;20.40;41.90
49184;DHT22;35021;49.214;12.270;2023-03-23T09:48:48;20.50;41.90
49184;DHT22;35021;49.214;12.270;2023-03-23T09:51:40;20.50;41.90
49184;DHT22;35021;49.214;12.270;2023-03-23T09:54:26;20.60;41.80
49184;DHT22;35021;49.214;12.270;2023-03-23T09:56:54;20.60;41.70
49184;DHT22;35021;49.214;12.270;2023-03-23T09:59:23;20.70;41.60
49184;DHT22;35021;49.214;12.270;2023-03-23T10:01:52;20.70;41.40
49184;DHT22;35021;49.214;12.270;2023-03-23T10:04:30;20.80;41.20
49184;DHT22;35021;49.214;12.270;2023-03-23T10:07:03;20.90;41.30
49184;DHT22;35021;49.214;12.270;2023-03-23T10:09:31;20.90;41.30
49184;DHT22;35021;49.214;12.270;2023-03-23T10:14:54;21.00;41.60
49184;DHT22;35021;49.214;12.270;2023-03-23T10:25:24;21.00;41.60
49184;DHT22;35021;49.214;12.270;2023-03-23T10:31:27;21.00;41.60
49184;DHT22;35021;49.214;12.270;2023-03-23T10:33:57;20.90;41.50
49184;DHT22;35021;49.214;12.270;2023-03-23T10:37:09;20.90;41.60
49184;DHT22;35021;49.214;12.270;2023-03-23T10:39:44;20.90;41.80
49184;DHT22;35021;49.214;12.270;2023-03-23T10:42:11;20.80;41.80
49184;DHT22;35021;49.214;12.270;2023-03-23T10:44:37;20.80;42.00
49184;DHT22;35021;49.214;12.270;2023-03-23T10:47:06;20.80;42.00
49184;DHT22;35021;49.214;12.270;2023-03-23T10:49:55;20.70;42.10
49184;DHT22;35021;49.214;12.270;2023-03-23T10:55:10;20.70;42.40
49184;DHT22;35021;49.214;12.270;2023-03-23T10:57:39;20.70;42.60
49184;DHT22;35021;49.214;12.270;2023-03-23T11:00:19;20.70;43.40
49184;DHT22;35021;49.214;12.270;2023-03-23T11:03:05;20.60;42.70
49184;DHT22;35021;49.214;12.270;2023-03-23T11:05:37;20.60;42.70
49184;DHT22;35021;49.214;12.270;2023-03-23T11:08:15;20.70;42.80
49184;DHT22;35021;49.214;12.270;2023-03-23T11:10:51;20.60;42.80
49184;DHT22;35021;49.214;12.270;2023-03-23T11:13:19;20.70;42.80
49184;DHT22;35021;49.214;12.270;2023-03-23T11:15:47;20.70;42.90
49184;DHT22;35021;49.214;12.270;2023-03-23T11:18:20;20.60;42.90
49184;DHT22;35021;49.214;12.270;2023-03-23T11:20:54;20.70;42.90
49184;DHT22;35021;49.214;12.270;2023-03-23T11:23:29;20.70;42.90
49184;DHT22;35021;49.214;12.270;2023-03-23T11:26:14;20.60;42.80
49184;DHT22;35021;49.214;12.270;2023-03-23T11:28:48;20.70;42.90
49184;DHT22;35021;49.214;12.270;2023-03-23T11:31:17;20.70;42.90
49184;DHT22;35021;49.214;12.270;2023-03-23T11:33:54;20.60;42.80
49184;DHT22;35021;49.214;12.270;2023-03-23T11:36:21;20.60;42.90
49184;DHT22;35021;49.214;12.270;2023-03-23T11:38:54;20.60;43.00
49184;DHT22;35021;49.214;12.270;2023-03-23T11:41:25;20.60;43.10
49184;DHT22;35021;49.214;12.270;2023-03-23T11:43:53;20.60;43.20
49184;DHT22;35021;49.214;12.270;2023-03-23T11:49:00;20.50;43.10
49184;DHT22;35021;49.214;12.270;2023-03-23T11:51:33;20.50;43.00
49184;DHT22;35021;49.214;12.270;2023-03-23T11:56:43;20.40;43.10
49184;DHT22;35021;49.214;12.270;2023-03-23T11:59:15;20.40;43.10
49184;DHT22;35021;49.214;12.270;2023-03-23T12:04:40;20.40;43.20
49184;DHT22;35021;49.214;12.270;2023-03-23T12:07:47;20.40;43.30
49184;DHT22;35021;49.214;12.270;2023-03-23T12:21:14;20.10;44.20
49184;DHT22;35021;49.214;12.270;2023-03-23T12:23:54;20.10;44.20
49184;DHT22;35021;49.214;12.270;2023-03-23T12:26:50;20.10;44.20
49184;DHT22;35021;49.214;12.270;2023-03-23T12:36:03;20.00;44.40
49184;DHT22;35021;49.214;12.270;2023-03-23T12:49:43;20.10;44.50
49184;DHT22;35021;49.214;12.270;2023-03-23T12:59:56;20.10;44.20
49184;DHT22;35021;49.214;12.270;2023-03-23T13:02:33;20.20;44.20
49184;DHT22;35021;49.214;12.270;2023-03-23T13:05:06;20.10;44.20
49184;DHT22;35021;49.214;12.270;2023-03-23T13:07:39;20.10;44.40
49184;DHT22;35021;49.214;12.270;2023-03-23T13:10:26;20.10;45.10
49184;DHT22;35021;49.214;12.270;2023-03-23T13:12:54;20.00;44.70
49184;DHT22;35021;49.214;12.270;2023-03-23T13:15:47;20.00;44.70
49184;DHT22;35021;49.214;12.270;2023-03-23T13:23:50;19.90;44.90
49184;DHT22;35021;49.214;12.270;2023-03-23T13:26:20;19.90;44.90
49184;DHT22;35021;49.214;12.270;2023-03-23T13:28:59;19.90;45.10
49184;DHT22;35021;49.214;12.270;2023-03-23T13:31:32;19.90;45.00
49184;DHT22;35021;49.214;12.270;2023-03-23T13:34:22;19.90;45.00
49184;DHT22;35021;49.214;12.270;2023-03-23T13:39:20;19.90;44.90
49184;DHT22;35021;49.214;12.270;2023-03-23T13:42:20;19.90;45.00
49184;DHT22;35021;49.214;12.270;2023-03-23T13:49:58;19.90;44.90
49184;DHT22;35021;49.214;12.270;2023-03-23T13:52:37;19.80;44.80
49184;DHT22;35021;49.214;12.270;2023-03-23T14:05:50;19.80;45.40
49184;DHT22;35021;49.214;12.270;2023-03-23T14:08:24;19.80;45.50
49184;DHT22;35021;49.214;12.270;2023-03-23T14:16:24;19.80;45.50
49184;DHT22;35021;49.214;12.270;2023-03-23T14:18:56;19.90;45.40
49184;DHT22;35021;49.214;12.270;2023-03-23T14:21:37;19.90;45.40
49184;DHT22;35021;49.214;12.270;2023-03-23T14:24:10;19.90;45.40
49184;DHT22;35021;49.214;12.270;2023-03-23T14:26:38;19.90;45.30
49184;DHT22;35021;49.214;12.270;2023-03-23T14:29:05;19.90;45.20
49184;DHT22;35021;49.214;12.270;2023-03-23T14:31:31;19.90;45.20
49184;DHT22;35021;49.214;12.270;2023-03-23T14:34:03;19.90;45.10
49184;DHT22;35021;49.214;12.270;2023-03-23T14:36:31;19.90;45.10
49184;DHT22;35021;49.214;12.270;2023-03-23T14:41:41;19.80;45.60
49184;DHT22;35021;49.214;12.270;2023-03-23T14:44:14;19.80;45.70
49184;DHT22;35021;49.214;12.270;2023-03-23T14:46:45;19.80;46.00
49184;DHT22;35021;49.214;12.270;2023-03-23T14:49:15;19.70;46.00
49184;DHT22;35021;49.214;12.270;2023-03-23T14:51:53;19.70;46.20
49184;DHT22;35021;49.214;12.270;2023-03-23T14:54:27;19.60;46.20
49184;DHT22;35021;49.214;12.270;2023-03-23T14:56:54;19.60;46.40
49184;DHT22;35021;49.214;12.270;2023-03-23T14:59:20;19.60;46.70
49184;DHT22;35021;49.214;12.270;2023-03-23T15:01:47;19.60;46.70
49184;DHT22;35021;49.214;12.270;2023-03-23T15:04:20;19.60;46.80
49184;DHT22;35021;49.214;12.270;2023-03-23T15:06:51;19.60;46.80
49184;DHT22;35021;49.214;12.270;2023-03-23T15:09:21;19.60;46.90
49184;DHT22;35021;49.214;12.270;2023-03-23T15:11:56;19.60;46.90
49184;DHT22;35021;49.214;12.270;2023-03-23T15:14:32;19.60;46.90
49184;DHT22;35021;49.214;12.270;2023-03-23T15:17:01;19.60;46.90
49184;DHT22;35021;49.214;12.270;2023-03-23T15:19:32;19.60;46.90
49184;DHT22;35021;49.214;12.270;2023-03-23T15:22:26;19.60;47.00
49184;DHT22;35021;49.214;12.270;2023-03-23T15:25:17;19.60;47.00
49184;DHT22;35021;49.214;12.270;2023-03-23T15:27:50;19.60;47.00
49184;DHT22;35021;49.214;12.270;2023-03-23T15:32:51;19.60;47.00
49184;DHT22;35021;49.214;12.270;2023-03-23T15:35:24;19.60;47.00
49184;DHT22;35021;49.214;12.270;2023-03-23T15:37:56;19.70;47.10
49184;DHT22;35021;49.214;12.270;2023-03-23T15:40:24;19.70;47.20
49184;DHT22;35021;49.214;12.270;2023-03-23T15:43:14;19.70;47.10
49184;DHT22;35021;49.214;12.270;2023-03-23T15:48:22;19.70;46.80
49184;DHT22;35021;49.214;12.270;2023-03-23T15:50:49;19.70;46.70
49184;DHT22;35021;49.214;12.270;2023-03-23T15:53:26;19.80;46.70
49184;DHT22;35021;49.214;12.270;2023-03-23T15:55:52;19.80;46.80
49184;DHT22;35021;49.214;12.270;2023-03-23T15:58:18;19.80;46.90
49184;DHT22;35021;49.214;12.270;2023-03-23T16:00:46;19.70;46.80
49184;DHT22;35021;49.214;12.270;2023-03-23T16:03:20;19.70;46.90
49184;DHT22;35021;49.214;12.270;2023-03-23T16:05:50;19.70;46.90
49184;DHT22;35021;49.214;12.270;2023-03-23T16:08:17;19.70;46.80
49184;DHT22;35021;49.214;12.270;2023-03-23T16:10:43;19.70;46.90
49184;DHT22;35021;49.214;12.270;2023-03-23T16:13:10;19.70;47.00
49184;DHT22;35021;49.214;12.270;2023-03-23T16:15:37;19.70;47.10
49184;DHT22;35021;49.214;12.270;2023-03-23T16:18:04;19.70;47.10
49184;DHT22;35021;49.214;12.270;2023-03-23T16:20:31;19.70;47.10
49184;DHT22;35021;49.214;12.270;2023-03-23T16:22:58;19.70;47.20
49184;DHT22;35021;49.214;12.270;2023-03-23T16:25:26;19.70;47.20
49184;DHT22;35021;49.214;12.270;2023-03-23T16:27:53;19.70;47.20
49184;DHT22;35021;49.214;12.270;2023-03-23T16:30:25;19.70;47.10
49184;DHT22;35021;49.214;12.270;2023-03-23T16:32:52;19.70;47.30
49184;DHT22;35021;49.214;12.270;2023-03-23T16:35:23;19.70;47.30
49184;DHT22;35021;49.214;12.270;2023-03-23T16:37:52;19.70;47.40
49184;DHT22;35021;49.214;12.270;2023-03-23T16:40:37;19.70;47.50
49184;DHT22;35021;49.214;12.270;2023-03-23T16:43:04;19.70;47.60
49184;DHT22;35021;49.214;12.270;2023-03-23T16:45:36;19.70;47.70
49184;DHT22;35021;49.214;12.270;2023-03-23T16:48:04;19.60;47.70
49184;DHT22;35021;49.214;12.270;2023-03-23T16:50:32;19.60;47.70
49184;DHT22;35021;49.214;12.270;2023-03-23T16:52:59;19.60;47.80
49184;DHT22;35021;49.214;12.270;2023-03-23T16:55:27;19.50;47.90
49184;DHT22;35021;49.214;12.270;2023-03-23T16:57:54;19.50;48.00
49184;DHT22;35021;49.214;12.270;2023-03-23T17:00:39;19.50;48.10
49184;DHT22;35021;49.214;12.270;2023-03-23T17:03:07;19.50;48.10
49184;DHT22;35021;49.214;12.270;2023-03-23T17:05:35;19.40;48.20
49184;DHT22;35021;49.214;12.270;2023-03-23T17:08:02;19.40;48.30
49184;DHT22;35021;49.214;12.270;2023-03-23T17:10:30;19.40;48.30
49184;DHT22;35021;49.214;12.270;2023-03-23T17:12:57;19.40;48.40
49184;DHT22;35021;49.214;12.270;2023-03-23T17:15:24;19.40;48.30
49184;DHT22;35021;49.214;12.270;2023-03-23T17:17:52;19.40;48.40
49184;DHT22;35021;49.214;12.270;2023-03-23T17:20:21;19.40;48.40
49184;DHT22;35021;49.214;12.270;2023-03-23T17:22:48;19.40;48.40
49184;DHT22;35021;49.214;12.270;2023-03-23T17:25:15;19.30;48.40
49184;DHT22;35021;49.214;12.270;2023-03-23T17:27:42;19.30;48.40
49184;DHT22;35021;49.214;12.270;2023-03-23T17:30:09;19.30;48.50
49184;DHT22;35021;49.214;12.270;2023-03-23T17:32:36;19.30;48.50
49184;DHT22;35021;49.214;12.270;2023-03-23T17:35:04;19.30;48.50
49184;DHT22;35021;49.214;12.270;2023-03-23T17:37:33;19.30;48.70